Time;durP1;ratioP1;P1;durP2;ratioP2;P2;SDS_P1;SDS_P2;PMS_P1;PMS_P2;Temp;Humidity;BMP_temperature;BMP_pressure;BME280_temperature;BME280_humidity;BME280_pressure;Samples;Min_cycle;Max_cycle;Signal;HPM_P1;HPM_P2
2021/09/23 00:01:34;;;;;;;11.25;7.03;;;;;;;28.30;24.38;98739.25;5072941;28;20024;-82
2021/09/23 00:06:45;;;;;;;13.13;8.15;;;;;;;28.08;24.61;98736.22;5074977;28;20066;-80
2021/09/23 00:09:11;;;;;;;9.85;7.13;;;;;;;28.20;24.39;98733.88;5074606;28;20472;-80
2021/09/23 00:11:37;;;;;;;12.15;7.32;;;;;;;28.18;24.56;98731.53;5073578;28;20172;-80
2021/09/23 00:14:04;;;;;;;16.27;8.15;;;;;;;28.39;24.03;98730.91;5075154;28;20040;-80
2021/09/23 00:16:30;;;;;;;11.93;7.55;;;;;;;27.98;24.71;98728.81;5071685;28;20038;-81
2021/09/23 00:18:56;;;;;;;10.43;7.15;;;;;;;28.18;24.36;98722.25;5073729;28;20039;-81
2021/09/23 00:21:22;;;;;;;10.23;6.28;;;;;;;28.16;24.37;98727.56;5072668;28;20453;-81
2021/09/23 00:23:49;;;;;;;10.82;6.45;;;;;;;28.49;24.15;98721.34;5074174;28;20033;-81
2021/09/23 00:26:15;;;;;;;9.38;6.53;;;;;;;28.68;23.73;98726.00;5072358;28;20052;-81
2021/09/23 00:28:43;;;;;;;12.15;7.10;;;;;;;28.36;24.36;98714.84;5073342;28;20442;-81
2021/09/23 00:31:09;;;;;;;8.77;5.65;;;;;;;28.63;23.97;98712.47;5071704;28;20032;-81
2021/09/23 00:33:35;;;;;;;11.40;6.90;;;;;;;29.07;23.20;98719.16;5072010;28;20046;-81
2021/09/23 00:36:02;;;;;;;10.98;6.18;;;;;;;29.38;22.86;98708.06;5073771;28;20033;-81
2021/09/23 00:38:28;;;;;;;10.02;6.50;;;;;;;29.30;22.96;98704.69;5073259;28;20036;-81
2021/09/23 00:40:54;;;;;;;11.20;6.72;;;;;;;29.28;23.06;98710.00;5070502;28;20040;-80
2021/09/23 00:43:20;;;;;;;7.03;4.63;;;;;;;29.44;23.03;98711.91;5072084;28;20032;-81
2021/09/23 00:45:46;;;;;;;9.65;5.32;;;;;;;29.57;22.66;98714.72;5070294;28;20071;-80
2021/09/23 00:48:12;;;;;;;9.82;6.93;;;;;;;29.44;22.59;98711.91;5072201;28;20071;-80
2021/09/23 00:50:40;;;;;;;9.32;6.38;;;;;;;29.14;23.01;98706.81;5073280;28;20036;-81
2021/09/23 00:53:07;;;;;;;12.15;5.07;;;;;;;29.18;23.13;98713.16;5071621;28;20049;-81
2021/09/23 00:55:33;;;;;;;9.95;6.10;;;;;;;29.43;22.90;98713.94;5066575;28;20079;-81
2021/09/23 00:57:59;;;;;;;9.57;6.90;;;;;;;28.91;23.42;98704.34;5072593;28;20036;-81
2021/09/23 01:00:26;;;;;;;8.88;5.50;;;;;;;28.88;23.47;98706.03;5072669;28;20037;-81
2021/09/23 01:02:52;;;;;;;11.43;7.50;;;;;;;28.84;23.36;98702.53;5071848;28;20032;-81
2021/09/23 01:05:18;;;;;;;13.52;8.15;;;;;;;28.60;23.80;98704.88;5079823;28;20028;-81
2021/09/23 01:07:46;;;;;;;10.75;6.47;;;;;;;28.19;24.10;98718.19;5081842;28;20654;-81
2021/09/23 01:10:14;;;;;;;12.80;6.93;;;;;;;28.21;24.20;98705.22;5073767;28;20226;-81
2021/09/23 01:12:40;;;;;;;10.23;6.05;;;;;;;28.56;23.73;98707.00;5089059;28;20084;-81
2021/09/23 01:15:08;;;;;;;11.20;6.78;;;;;;;28.94;23.32;98698.56;5085420;28;20040;-80
2021/09/23 01:17:34;;;;;;;11.65;6.35;;;;;;;29.19;22.83;98707.06;5072813;28;20036;-80
2021/09/23 01:20:01;;;;;;;11.93;8.02;;;;;;;29.10;22.88;98700.50;5073927;28;20048;-81
2021/09/23 01:22:27;;;;;;;10.50;6.53;;;;;;;29.33;22.76;98692.47;5073708;28;20106;-81
2021/09/23 01:24:53;;;;;;;8.40;5.57;;;;;;;29.59;22.51;98690.38;5081063;28;20024;-81
2021/09/23 01:27:19;;;;;;;9.27;5.63;;;;;;;29.82;21.97;98680.69;5071617;28;20064;-80
2021/09/23 01:29:45;;;;;;;9.38;5.85;;;;;;;29.71;22.05;98683.09;5074044;28;20040;-80
2021/09/23 01:32:12;;;;;;;10.75;5.40;;;;;;;29.60;22.35;98691.13;5071515;28;20097;-81
2021/09/23 01:34:41;;;;;;;10.40;5.95;;;;;;;29.58;22.13;98687.97;5075246;28;20025;-80
2021/09/23 01:37:09;;;;;;;7.28;4.65;;;;;;;29.57;22.32;98684.34;5073356;28;20064;-80
2021/09/23 01:39:36;;;;;;;8.00;5.22;;;;;;;29.75;22.09;98678.06;5071542;28;20060;-80
2021/09/23 01:42:03;;;;;;;8.75;5.32;;;;;;;29.79;21.98;98690.09;5088163;28;20043;-80
2021/09/23 01:44:29;;;;;;;14.05;7.25;;;;;;;29.70;21.82;98673.00;5071796;28;20029;-80
2021/09/23 01:46:55;;;;;;;8.43;5.45;;;;;;;29.73;22.16;98672.88;5072445;28;20044;-80
2021/09/23 01:49:21;;;;;;;12.35;7.32;;;;;;;29.46;22.20;98683.94;5073274;28;20097;-80
2021/09/23 01:51:47;;;;;;;9.40;5.10;;;;;;;29.19;22.54;98675.97;5069604;28;20038;-81
2021/09/23 01:54:14;;;;;;;7.22;4.78;;;;;;;29.17;22.63;98669.91;5071934;28;20050;-80
2021/09/23 01:56:40;;;;;;;8.32;4.63;;;;;;;29.14;22.82;98672.88;5073145;28;20480;-80
2021/09/23 01:59:06;;;;;;;7.72;4.13;;;;;;;29.16;22.63;98682.50;5072672;28;20063;-80
2021/09/23 02:01:32;;;;;;;8.65;4.70;;;;;;;29.42;22.12;98674.78;5073224;28;20048;-81
2021/09/23 02:03:59;;;;;;;9.13;5.75;;;;;;;29.60;22.22;98657.97;5072310;28;20032;-80
2021/09/23 02:06:25;;;;;;;6.68;4.85;;;;;;;29.81;22.01;98647.94;5076104;28;20040;-80
2021/09/23 02:08:51;;;;;;;8.07;4.63;;;;;;;29.76;21.89;98643.66;5073197;28;20040;-80
2021/09/23 02:11:18;;;;;;;8.63;5.47;;;;;;;29.92;21.69;98637.03;5071554;28;20055;-81
2021/09/23 02:13:44;;;;;;;8.02;4.97;;;;;;;29.97;21.62;98636.44;5072456;28;20116;-81
2021/09/23 02:16:10;;;;;;;7.32;5.10;;;;;;;29.70;21.80;98624.88;5072798;28;20048;-81
2021/09/23 02:18:36;;;;;;;8.18;4.57;;;;;;;29.53;22.08;98631.94;5072053;28;20033;-81
2021/09/23 02:21:02;;;;;;;7.80;5.03;;;;;;;29.43;22.04;98625.41;5071534;28;20082;-81
2021/09/23 02:23:28;;;;;;;7.22;4.88;;;;;;;29.36;21.80;98634.16;5071158;28;20106;-81
2021/09/23 02:25:54;;;;;;;8.65;5.00;;;;;;;29.20;21.78;98637.13;5071350;28;20041;-81
2021/09/23 02:28:20;;;;;;;7.32;3.95;;;;;;;29.06;22.21;98627.06;5072049;28;20033;-81
2021/09/23 02:30:46;;;;;;;8.65;5.20;;;;;;;28.86;22.22;98626.53;5070966;28;20044;-81
2021/09/23 02:33:13;;;;;;;9.02;4.22;;;;;;;28.76;22.50;98624.84;5071246;28;20042;-81
2021/09/23 02:35:39;;;;;;;6.60;4.63;;;;;;;28.82;22.32;98617.41;5068129;28;20033;-81
2021/09/23 02:38:05;;;;;;;7.88;3.85;;;;;;;29.10;21.90;98612.81;5071622;28;20301;-81
2021/09/23 02:40:31;;;;;;;6.80;4.20;;;;;;;29.14;22.00;98614.28;5071614;28;20372;-82
2021/09/23 02:42:57;;;;;;;7.55;4.38;;;;;;;29.19;21.83;98610.13;5071662;28;20032;-81
2021/09/23 02:45:23;;;;;;;7.15;4.60;;;;;;;29.35;21.68;98602.25;5071026;28;20040;-81
2021/09/23 02:47:49;;;;;;;6.57;4.80;;;;;;;29.39;21.71;98602.91;5069321;28;20029;-81
2021/09/23 02:50:15;;;;;;;5.90;3.88;;;;;;;29.42;21.72;98610.50;5070458;28;20419;-81
2021/09/23 02:52:41;;;;;;;5.70;3.70;;;;;;;29.10;21.95;98615.66;5071805;28;20072;-81
2021/09/23 02:55:08;;;;;;;9.57;4.40;;;;;;;29.24;21.88;98607.47;5071351;28;20131;-81
2021/09/23 02:57:34;;;;;;;7.50;4.60;;;;;;;29.42;21.99;98602.00;5071527;28;20389;-80
2021/09/23 03:00:00;;;;;;;8.07;4.68;;;;;;;29.13;21.86;98621.19;5070342;28;20472;-81
2021/09/23 03:02:26;;;;;;;6.30;4.18;;;;;;;29.16;21.88;98611.00;5069255;28;20033;-82
2021/09/23 03:04:52;;;;;;;10.25;4.30;;;;;;;29.04;22.04;98604.13;5073155;28;20433;-81
2021/09/23 03:07:18;;;;;;;7.97;5.13;;;;;;;29.13;21.99;98597.75;5072595;28;20036;-81
2021/09/23 03:09:44;;;;;;;7.95;4.35;;;;;;;29.24;22.02;98601.06;5048867;28;20400;-81
2021/09/23 03:12:10;;;;;;;7.50;4.20;;;;;;;29.21;21.99;98596.31;5072202;28;20373;-81
2021/09/23 03:14:36;;;;;;;5.63;3.85;;;;;;;29.35;21.99;98598.63;5072240;28;20472;-81
2021/09/23 03:17:02;;;;;;;4.93;3.58;;;;;;;29.41;21.62;98597.59;5072155;28;20044;-81
2021/09/23 03:19:28;;;;;;;7.43;4.60;;;;;;;29.16;21.99;98603.31;5067689;28;20496;-80
2021/09/23 03:21:55;;;;;;;7.05;3.90;;;;;;;28.93;22.23;98602.91;5073594;28;20048;-81
2021/09/23 03:24:21;;;;;;;6.80;3.92;;;;;;;29.08;22.05;98604.00;5073703;28;20029;-80
2021/09/23 03:26:47;;;;;;;4.72;3.35;;;;;;;29.21;21.97;98597.09;5075817;28;20155;-81
2021/09/23 03:29:15;;;;;;;5.80;3.53;;;;;;;29.41;21.93;98580.63;5074622;28;20036;-81
2021/09/23 03:31:41;;;;;;;6.65;3.85;;;;;;;29.35;21.68;98585.28;5074687;28;20124;-81
2021/09/23 03:34:07;;;;;;;6.70;4.28;;;;;;;29.01;22.04;98587.28;5073424;28;20043;-81
2021/09/23 03:36:33;;;;;;;6.40;3.63;;;;;;;28.97;22.14;98584.56;5075200;28;20025;-80
2021/09/23 03:39:00;;;;;;;4.95;3.50;;;;;;;28.86;22.23;98597.47;5075723;28;20037;-80
2021/09/23 03:41:26;;;;;;;8.13;4.10;;;;;;;29.12;22.07;98601.84;5074602;28;20028;-81
2021/09/23 03:43:52;;;;;;;7.78;3.40;;;;;;;29.13;21.98;98609.06;5075296;28;20032;-81
2021/09/23 03:46:19;;;;;;;6.25;3.78;;;;;;;28.88;22.09;98607.09;5076249;28;20028;-81
2021/09/23 03:48:45;;;;;;;3.75;3.10;;;;;;;29.12;21.89;98596.19;5070367;28;20093;-81
2021/09/23 03:51:13;;;;;;;5.43;3.53;;;;;;;29.14;21.94;98605.00;5076060;28;20047;-81
2021/09/23 03:53:40;;;;;;;6.57;3.22;;;;;;;29.21;21.99;98599.94;5075424;28;20052;-81
2021/09/23 03:56:07;;;;;;;7.32;3.90;;;;;;;29.34;21.60;98603.50;5076037;28;20064;-81
2021/09/23 03:58:33;;;;;;;6.25;3.58;;;;;;;29.32;21.67;98600.34;5075275;28;20036;-81
2021/09/23 04:00:59;;;;;;;6.80;3.65;;;;;;;29.21;21.69;98597.09;5073579;28;20039;-79
2021/09/23 04:03:25;;;;;;;7.43;3.65;;;;;;;29.29;21.57;98597.66;5075860;28;20040;-79
2021/09/23 04:05:51;;;;;;;7.22;3.25;;;;;;;29.27;21.78;98594.47;5073905;28;20075;-78
2021/09/23 04:08:18;;;;;;;4.65;3.13;;;;;;;29.37;21.72;98596.94;5074810;28;20411;-80
2021/09/23 04:10:44;;;;;;;4.53;2.85;;;;;;;29.32;21.77;98602.38;5072740;28;20052;-81
2021/09/23 04:13:10;;;;;;;5.07;3.30;;;;;;;28.98;22.10;98605.94;5074065;28;20032;-81
2021/09/23 04:15:36;;;;;;;3.90;2.45;;;;;;;29.11;21.92;98601.06;5071167;28;20176;-78
2021/09/23 04:18:03;;;;;;;4.43;2.88;;;;;;;29.36;21.78;98592.50;5068236;28;20128;-78
2021/09/23 04:20:29;;;;;;;5.05;2.97;;;;;;;29.34;21.63;98588.56;5075972;28;20075;-80
2021/09/23 04:22:56;;;;;;;4.63;3.33;;;;;;;29.32;21.95;98579.75;5068571;28;20041;-78
2021/09/23 04:25:22;;;;;;;5.60;3.08;;;;;;;29.33;21.93;98567.19;5079102;28;20047;-78
2021/09/23 04:27:48;;;;;;;4.40;3.33;;;;;;;29.36;21.80;98572.72;5073416;28;20033;-81
2021/09/23 04:30:14;;;;;;;7.40;4.25;;;;;;;29.08;22.07;98573.66;5071739;28;20032;-80
2021/09/23 04:32:40;;;;;;;4.72;3.20;;;;;;;29.00;22.30;98583.66;5068392;28;20056;-80
2021/09/23 04:35:06;;;;;;;3.65;2.92;;;;;;;28.93;22.50;98574.63;5069958;28;20074;-80
2021/09/23 04:37:33;;;;;;;4.47;2.80;;;;;;;28.97;22.48;98569.63;5070463;28;20034;-80
2021/09/23 04:39:59;;;;;;;4.00;2.75;;;;;;;29.15;22.29;98567.78;5069254;28;20415;-80
2021/09/23 04:42:25;;;;;;;5.38;3.60;;;;;;;29.07;22.15;98571.31;5069534;28;20403;-80
2021/09/23 04:44:51;;;;;;;5.43;3.17;;;;;;;28.71;22.54;98583.00;5073091;28;20109;-80
2021/09/23 04:47:17;;;;;;;5.22;3.33;;;;;;;28.84;22.72;98583.00;5068022;28;20483;-80
2021/09/23 04:49:44;;;;;;;4.82;4.03;;;;;;;29.15;22.09;98586.81;5071899;28;20082;-79
2021/09/23 04:52:10;;;;;;;5.03;3.30;;;;;;;29.17;22.09;98585.06;5074625;28;20033;-79
2021/09/23 04:54:37;;;;;;;6.53;3.65;;;;;;;29.14;22.34;98588.03;5073349;28;20067;-79
2021/09/23 04:57:03;;;;;;;4.90;3.13;;;;;;;29.20;22.22;98581.38;5070149;28;20044;-79
2021/09/23 04:59:29;;;;;;;4.22;3.10;;;;;;;29.50;22.03;98579.13;5068035;28;20059;-79
2021/09/23 05:01:55;;;;;;;4.07;2.88;;;;;;;29.60;22.07;98575.09;5073659;28;20605;-80
2021/09/23 05:04:21;;;;;;;5.97;2.50;;;;;;;29.87;21.75;98561.19;5073628;28;20028;-79
2021/09/23 05:06:47;;;;;;;5.15;2.95;;;;;;;30.03;21.60;98560.97;5073813;28;20029;-80
2021/09/23 05:09:13;;;;;;;3.80;2.88;;;;;;;30.06;21.60;98551.53;5074464;28;20392;-80
2021/09/23 05:11:39;;;;;;;5.65;2.58;;;;;;;29.91;21.79;98565.47;5074214;28;20496;-79
2021/09/23 05:14:06;;;;;;;6.68;3.00;;;;;;;29.41;22.22;98560.81;5077234;28;20115;-79
2021/09/23 05:16:32;;;;;;;4.75;3.33;;;;;;;29.15;22.70;98564.19;5068892;28;20040;-80
2021/09/23 05:19:00;;;;;;;5.85;3.88;;;;;;;29.10;22.97;98568.34;5073751;28;20043;-80
2021/09/23 05:21:26;;;;;;;4.18;2.70;;;;;;;29.20;22.55;98558.75;5072856;28;20036;-81
2021/09/23 05:23:52;;;;;;;4.82;3.47;;;;;;;29.26;22.38;98553.31;5072658;28;20472;-81
2021/09/23 05:26:18;;;;;;;6.28;4.05;;;;;;;29.03;22.54;98560.13;5072640;28;20483;-81
2021/09/23 05:28:44;;;;;;;6.18;4.15;;;;;;;29.02;22.87;98563.41;5072512;28;20491;-81
2021/09/23 05:31:11;;;;;;;5.35;4.18;;;;;;;29.18;22.78;98558.41;5063114;28;20033;-82
2021/09/23 05:33:40;;;;;;;6.65;4.40;;;;;;;29.36;22.65;98555.72;5065929;28;20044;-81
2021/09/23 05:36:06;;;;;;;6.30;4.53;;;;;;;29.58;22.64;98546.47;5073238;28;20024;-80
2021/09/23 05:38:32;;;;;;;4.50;3.22;;;;;;;29.80;22.69;98556.56;5074046;28;20441;-81
2021/09/23 05:41:01;;;;;;;8.63;4.03;;;;;;;30.12;22.07;98554.56;5073835;28;20480;-81
2021/09/23 05:43:28;;;;;;;6.85;4.40;;;;;;;30.05;21.94;98556.41;5073577;28;20484;-81
2021/09/23 05:45:54;;;;;;;5.63;3.60;;;;;;;30.05;22.30;98558.47;5072787;28;20040;-81
2021/09/23 05:48:21;;;;;;;5.47;3.95;;;;;;;30.08;22.10;98552.63;5073767;28;20036;-81
2021/09/23 05:50:47;;;;;;;4.60;3.40;;;;;;;30.23;22.13;98544.38;5073442;28;20047;-81
2021/09/23 05:53:13;;;;;;;3.22;2.60;;;;;;;30.42;22.06;98545.28;5073298;28;20554;-82
2021/09/23 05:55:40;;;;;;;6.40;3.58;;;;;;;30.26;22.16;98551.97;5073594;28;20041;-82
2021/09/23 05:58:06;;;;;;;5.57;3.25;;;;;;;29.97;22.38;98549.44;5073641;28;20479;-82
2021/09/23 06:00:32;;;;;;;5.80;4.25;;;;;;;29.54;23.05;98543.00;5072699;28;20120;-82
2021/09/23 06:02:59;;;;;;;5.60;4.43;;;;;;;28.66;23.62;98553.28;5071931;28;20040;-81
2021/09/23 06:05:25;;;;;;;4.03;3.13;;;;;;;29.03;23.53;98557.31;5073779;28;20036;-81
2021/09/23 06:07:52;;;;;;;4.50;3.80;;;;;;;29.05;23.09;98556.84;5080605;28;20421;-81
2021/09/23 06:10:18;;;;;;;4.55;2.97;;;;;;;29.17;23.51;98559.63;5069217;28;20041;-81
2021/09/23 06:12:44;;;;;;;4.82;3.75;;;;;;;29.20;22.97;98555.13;5073265;28;20020;-81
2021/09/23 06:15:11;;;;;;;5.85;4.30;;;;;;;29.37;22.88;98539.56;5073045;28;20058;-81
2021/09/23 06:17:39;;;;;;;6.28;4.95;;;;;;;29.50;22.80;98528.97;5073344;28;20029;-81
2021/09/23 06:20:06;;;;;;;4.28;3.17;;;;;;;29.88;22.60;98528.78;5072860;28;20044;-81
2021/09/23 06:22:32;;;;;;;5.95;3.40;;;;;;;29.52;22.98;98523.66;5073224;28;20032;-81
2021/09/23 06:24:58;;;;;;;4.93;3.58;;;;;;;29.75;23.19;98528.84;5073287;28;20098;-81
2021/09/23 06:27:25;;;;;;;4.72;3.70;;;;;;;29.66;23.10;98523.13;5073412;28;20021;-81
2021/09/23 06:29:51;;;;;;;5.03;3.50;;;;;;;29.29;23.77;98527.69;5071773;28;20036;-81
2021/09/23 06:32:17;;;;;;;4.63;3.63;;;;;;;29.56;23.11;98529.97;5071329;28;20079;-82
2021/09/23 06:34:43;;;;;;;6.00;3.78;;;;;;;29.50;23.10;98533.84;5072177;28;20448;-81
2021/09/23 06:37:09;;;;;;;5.18;4.18;;;;;;;28.84;23.80;98540.63;5073405;28;20025;-81
2021/09/23 06:39:38;;;;;;;3.22;2.92;;;;;;;29.13;24.03;98527.84;5072372;28;20043;-81
2021/09/23 06:42:04;;;;;;;3.40;2.88;;;;;;;29.50;23.30;98528.97;5072656;28;20480;-81
2021/09/23 06:44:30;;;;;;;4.57;3.40;;;;;;;29.34;23.46;98529.94;5067172;28;20043;-81
2021/09/23 06:46:56;;;;;;;7.50;4.75;;;;;;;29.11;23.52;98533.19;5072190;28;20037;-81
2021/09/23 06:49:23;;;;;;;4.80;3.83;;;;;;;28.90;23.88;98533.13;5072052;28;20041;-81
2021/09/23 06:51:50;;;;;;;6.57;3.42;;;;;;;29.26;23.57;98522.97;5071783;28;20119;-82
2021/09/23 06:54:17;;;;;;;5.13;3.67;;;;;;;29.06;23.84;98524.47;5073206;28;20044;-81
2021/09/23 06:56:43;;;;;;;5.32;4.28;;;;;;;29.39;23.53;98525.75;5072388;28;20393;-81
2021/09/23 06:59:09;;;;;;;4.13;3.38;;;;;;;29.10;24.21;98514.63;5073309;28;20029;-81
2021/09/23 07:01:36;;;;;;;5.97;4.18;;;;;;;29.76;23.22;98516.28;5073453;28;20044;-82
2021/09/23 07:04:02;;;;;;;4.80;3.53;;;;;;;29.66;23.58;98519.50;5066601;28;20036;-81
2021/09/23 07:06:28;;;;;;;3.53;2.40;;;;;;;29.80;23.38;98516.16;5070683;28;20025;-81
2021/09/23 07:08:54;;;;;;;3.08;2.75;;;;;;;29.52;23.67;98508.72;5071914;28;20166;-81
2021/09/23 07:11:20;;;;;;;3.17;2.88;;;;;;;30.02;23.22;98511.22;5072216;28;20034;-82
2021/09/23 07:13:46;;;;;;;3.30;2.85;;;;;;;29.99;23.01;98503.69;5069307;28;20118;-81
2021/09/23 07:16:12;;;;;;;4.75;2.95;;;;;;;30.30;22.75;98504.44;5075142;28;20042;-82
2021/09/23 07:18:39;;;;;;;2.70;2.30;;;;;;;30.03;22.96;98498.66;5075256;28;20107;-82
2021/09/23 07:21:06;;;;;;;3.38;2.70;;;;;;;29.95;23.34;98498.16;5072218;28;20037;-82
2021/09/23 07:23:32;;;;;;;4.28;2.65;;;;;;;30.50;23.37;98496.34;5071768;28;20757;-82
2021/09/23 07:25:58;;;;;;;3.85;2.60;;;;;;;30.81;22.38;98486.97;5072298;28;20094;-82
2021/09/23 07:28:25;;;;;;;4.07;3.13;;;;;;;31.05;22.16;98485.91;5071126;28;20047;-82
2021/09/23 07:30:52;;;;;;;6.82;4.40;;;;;;;30.66;23.17;98489.63;5071640;28;20067;-82
2021/09/23 07:33:19;;;;;;;34.53;15.80;;;;;;;30.95;22.73;98484.31;5071530;28;20044;-86
2021/09/23 07:35:45;;;;;;;23.08;10.90;;;;;;;30.91;22.73;98474.38;5072677;28;20546;-82
2021/09/23 07:38:11;;;;;;;45.60;21.17;;;;;;;30.47;22.67;98483.13;5072585;28;20426;-82
2021/09/23 07:40:37;;;;;;;24.95;10.85;;;;;;;29.93;22.97;98478.00;5072347;28;20528;-83
2021/09/23 07:43:03;;;;;;;94.10;38.70;;;;;;;30.18;23.38;98467.72;5072266;28;20035;-83
2021/09/23 07:45:30;;;;;;;16.15;8.15;;;;;;;29.99;23.67;98469.72;5072043;28;20047;-83
2021/09/23 07:47:56;;;;;;;20.67;11.60;;;;;;;30.67;23.43;98462.84;5071924;28;20036;-82
2021/09/23 07:50:22;;;;;;;14.52;8.20;;;;;;;30.64;23.10;98475.91;5071428;28;20481;-83
2021/09/23 07:52:48;;;;;;;13.23;7.72;;;;;;;30.91;22.91;98465.88;5072276;28;20068;-83
2021/09/23 07:55:14;;;;;;;15.65;10.95;;;;;;;30.96;22.67;98459.59;5076874;28;20036;-83
2021/09/23 07:57:40;;;;;;;7.40;4.75;;;;;;;30.68;22.98;98459.53;5080176;28;20071;-82
2021/09/23 08:00:07;;;;;;;11.40;7.63;;;;;;;31.19;22.86;98456.13;5069667;28;20047;-83
2021/09/23 08:02:33;;;;;;;7.55;3.63;;;;;;;29.92;24.56;98445.28;5071049;28;20043;-83
2021/09/23 08:04:59;;;;;;;5.22;3.63;;;;;;;29.17;24.37;98457.03;5071809;28;20040;-82
2021/09/23 08:07:25;;;;;;;6.35;3.20;;;;;;;28.10;26.63;98461.13;5072554;28;20072;-82
2021/09/23 08:09:51;;;;;;;3.28;2.60;;;;;;;28.50;26.19;98463.00;5076005;28;20036;-82
2021/09/23 08:12:17;;;;;;;6.57;2.80;;;;;;;28.92;25.49;98457.91;5076063;28;20039;-82
2021/09/23 08:14:43;;;;;;;4.50;2.65;;;;;;;29.45;24.84;98467.34;5074902;28;20142;-83
2021/09/23 08:17:10;;;;;;;12.77;6.28;;;;;;;30.34;23.67;98464.66;5075980;28;20051;-83
2021/09/23 08:19:36;;;;;;;6.18;3.53;;;;;;;30.04;24.09;98458.53;5075766;28;20125;-83
2021/09/23 08:22:04;;;;;;;23.33;10.00;;;;;;;29.79;24.60;98457.94;5075868;28;20044;-82
2021/09/23 08:24:32;;;;;;;14.32;6.05;;;;;;;30.77;24.54;98456.72;5073746;28;20579;-83
2021/09/23 08:26:58;;;;;;;21.83;8.27;;;;;;;31.52;23.36;98448.53;5075556;28;20036;-83
2021/09/23 08:29:24;;;;;;;33.50;14.15;;;;;;;32.12;23.31;98448.50;5075327;28;20039;-83
2021/09/23 08:31:50;;;;;;;24.23;11.50;;;;;;;32.06;21.51;98444.75;5073647;28;21108;-83
2021/09/23 08:34:16;;;;;;;28.92;13.48;;;;;;;32.75;21.97;98442.50;5074460;28;20036;-83
2021/09/23 08:36:44;;;;;;;14.07;7.45;;;;;;;32.29;21.34;98437.53;5075023;28;20107;-83
2021/09/23 08:39:10;;;;;;;5.43;3.83;;;;;;;31.46;24.28;98436.22;5075701;28;20028;-83
2021/09/23 08:41:37;;;;;;;21.65;11.02;;;;;;;31.96;23.21;98438.34;5069702;28;20033;-83
2021/09/23 08:44:04;;;;;;;8.95;5.28;;;;;;;31.37;22.93;98427.72;5069349;28;20030;-83
2021/09/23 08:46:33;;;;;;;11.10;7.25;;;;;;;32.20;22.12;98423.38;5074317;28;20399;-83
2021/09/23 08:49:00;;;;;;;12.07;8.52;;;;;;;32.89;22.77;98421.03;5073560;28;20059;-83
2021/09/23 08:51:28;;;;;;;9.00;5.82;;;;;;;33.01;22.61;98422.03;5092050;28;20099;-84
2021/09/23 08:53:54;;;;;;;5.97;2.90;;;;;;;32.45;21.94;98428.59;5070241;28;20053;-83
2021/09/23 08:56:21;;;;;;;4.32;2.42;;;;;;;32.27;22.28;98425.88;5070933;28;20115;-83
2021/09/23 08:58:48;;;;;;;6.47;2.22;;;;;;;32.20;22.35;98420.53;5074902;28;20036;-83
2021/09/23 09:01:18;;;;;;;3.83;1.80;;;;;;;32.27;22.42;98418.13;5074030;28;20060;-84
2021/09/23 09:03:46;;;;;;;3.20;1.60;;;;;;;31.37;23.33;98431.34;5070048;28;20456;-83
2021/09/23 09:06:13;;;;;;;3.33;1.60;;;;;;;31.82;22.28;98430.47;5071903;28;20029;-83
2021/09/23 09:08:41;;;;;;;2.38;1.40;;;;;;;31.83;22.87;98428.41;5074721;28;20033;-83
2021/09/23 09:11:10;;;;;;;3.17;1.58;;;;;;;31.78;22.63;98424.19;5074950;28;20056;-83
2021/09/23 09:13:41;;;;;;;2.47;1.27;;;;;;;31.34;23.63;98420.16;5074557;28;20039;-83
2021/09/23 09:16:10;;;;;;;4.43;1.30;;;;;;;31.04;23.09;98413.41;5073884;28;20032;-83
2021/09/23 09:18:37;;;;;;;1.30;0.90;;;;;;;31.85;23.76;98421.00;5074603;28;20029;-84
2021/09/23 09:21:09;;;;;;;2.42;1.23;;;;;;;31.59;23.48;98419.81;5071884;28;20044;-83
2021/09/23 09:23:44;;;;;;;2.90;1.00;;;;;;;32.15;23.45;98416.31;5073310;28;20054;-83
2021/09/23 09:26:16;;;;;;;2.55;0.93;;;;;;;30.71;23.09;98424.56;5073591;28;20044;-83
2021/09/23 09:28:48;;;;;;;2.20;1.13;;;;;;;30.87;24.02;98412.16;5074923;28;20043;-83
2021/09/23 09:31:14;;;;;;;4.90;1.67;;;;;;;31.24;23.47;98413.72;5073656;28;20033;-84
2021/09/23 09:33:44;;;;;;;1.15;0.90;;;;;;;31.14;23.15;98422.69;5073367;28;20575;-83
2021/09/23 09:36:30;;;;;;;1.75;0.80;;;;;;;30.83;23.21;98416.41;5073471;28;20033;-83
2021/09/23 09:39:18;;;;;;;1.60;0.73;;;;;;;30.83;23.63;98422.06;5074492;28;20041;-83
2021/09/23 09:41:47;;;;;;;3.47;0.85;;;;;;;30.61;23.79;98414.50;5072190;28;20039;-83
2021/09/23 09:44:14;;;;;;;2.03;0.82;;;;;;;30.27;24.65;98408.28;5072424;28;20036;-83
2021/09/23 09:46:49;;;;;;;4.03;0.90;;;;;;;30.82;23.90;98404.25;5072872;28;20084;-83
2021/09/23 09:49:16;;;;;;;1.30;0.73;;;;;;;31.03;23.91;98408.22;5073957;28;20430;-83
2021/09/23 09:51:55;;;;;;;3.00;1.10;;;;;;;31.09;23.90;98409.16;5065515;28;20067;-83
2021/09/23 09:54:21;;;;;;;1.88;0.80;;;;;;;31.90;23.33;98405.34;5071656;28;20051;-83
2021/09/23 09:56:56;;;;;;;2.00;1.00;;;;;;;31.24;23.49;98396.69;5066844;28;20032;-83
2021/09/23 09:59:23;;;;;;;3.13;0.80;;;;;;;31.16;22.88;98406.78;5074074;28;20064;-83
2021/09/23 10:01:52;;;;;;;4.10;0.60;;;;;;;32.28;23.42;98399.81;5072867;28;20129;-84
2021/09/23 10:04:20;;;;;;;2.90;0.73;;;;;;;32.69;22.71;98395.31;5072676;28;20028;-83
2021/09/23 10:06:46;;;;;;;0.80;0.57;;;;;;;32.51;21.22;98390.50;5072378;28;20036;-83
2021/09/23 10:09:15;;;;;;;1.45;0.63;;;;;;;32.23;21.84;98388.31;5074039;28;20106;-83
2021/09/23 10:11:45;;;;;;;2.00;0.75;;;;;;;32.52;22.07;98382.78;5073312;28;20036;-83
2021/09/23 10:14:13;;;;;;;2.40;0.95;;;;;;;31.71;21.95;98384.75;5072582;28;20472;-83
2021/09/23 10:16:40;;;;;;;4.03;0.80;;;;;;;31.42;22.64;98385.31;5073633;28;20103;-83
2021/09/23 10:19:07;;;;;;;1.55;0.60;;;;;;;31.19;22.69;98379.50;5073640;28;20055;-83
2021/09/23 10:21:34;;;;;;;2.42;0.80;;;;;;;30.64;23.68;98371.00;5073032;28;20039;-83
2021/09/23 10:24:02;;;;;;;2.95;0.85;;;;;;;31.18;23.59;98358.84;5072007;28;20067;-83
2021/09/23 10:26:32;;;;;;;1.63;0.70;;;;;;;30.95;23.14;98361.59;5073216;28;20451;-83
2021/09/23 10:29:00;;;;;;;1.70;1.00;;;;;;;30.57;24.18;98351.47;5073513;28;20476;-83
2021/09/23 10:31:32;;;;;;;2.20;0.88;;;;;;;32.04;23.14;98348.63;5070951;28;20029;-84
2021/09/23 10:34:03;;;;;;;2.55;0.82;;;;;;;31.84;23.68;98345.56;5072705;28;20545;-83
2021/09/23 10:36:31;;;;;;;5.82;1.35;;;;;;;32.24;23.51;98339.53;5073434;28;20047;-83
2021/09/23 10:39:00;;;;;;;2.15;0.70;;;;;;;32.39;22.45;98329.00;5067658;28;20068;-83
2021/09/23 10:41:28;;;;;;;3.95;0.93;;;;;;;32.46;22.52;98330.69;5065699;28;20047;-83
2021/09/23 10:43:56;;;;;;;3.60;1.23;;;;;;;32.86;22.58;98319.59;5072950;28;20385;-83
2021/09/23 10:46:25;;;;;;;3.88;1.33;;;;;;;33.10;22.87;98319.56;5072835;28;20477;-84
2021/09/23 10:48:53;;;;;;;0.93;0.70;;;;;;;33.44;21.98;98319.63;5073003;28;20036;-83
2021/09/23 10:51:21;;;;;;;1.38;0.52;;;;;;;33.16;22.03;98317.59;5072423;28;20033;-84
2021/09/23 10:53:58;;;;;;;0.90;0.80;;;;;;;32.98;22.13;98321.38;5072839;28;20052;-83
2021/09/23 10:56:26;;;;;;;3.50;0.70;;;;;;;32.89;21.09;98315.78;5072906;28;20040;-83
2021/09/23 10:58:53;;;;;;;3.78;0.88;;;;;;;32.52;22.23;98318.19;5071417;28;20078;-83
2021/09/23 11:01:25;;;;;;;3.80;0.80;;;;;;;32.09;22.14;98307.44;5071606;28;20524;-83
2021/09/23 11:03:56;;;;;;;1.77;0.93;;;;;;;32.67;22.25;98290.56;5071564;28;20032;-83
2021/09/23 11:06:31;;;;;;;2.05;1.08;;;;;;;33.06;21.59;98284.81;5073061;28;20041;-83
2021/09/23 11:08:57;;;;;;;2.05;0.98;;;;;;;32.89;21.57;98290.19;5072049;28;20514;-83
2021/09/23 11:11:24;;;;;;;3.00;1.33;;;;;;;30.92;23.59;98288.81;5072485;28;20040;-83
2021/09/23 11:13:51;;;;;;;3.10;1.23;;;;;;;31.42;23.18;98291.66;5072957;28;20032;-83
2021/09/23 11:16:18;;;;;;;1.65;0.98;;;;;;;31.76;23.48;98281.91;5071734;28;20480;-83
2021/09/23 11:18:44;;;;;;;2.92;1.35;;;;;;;32.61;22.96;98266.13;5072717;28;20033;-83
2021/09/23 11:21:10;;;;;;;3.78;1.35;;;;;;;33.17;21.81;98270.78;5070799;28;20480;-83
2021/09/23 11:23:38;;;;;;;0.85;0.80;;;;;;;33.10;21.39;98265.47;5072361;28;20045;-83
2021/09/23 11:26:06;;;;;;;2.08;1.15;;;;;;;33.41;21.90;98260.84;5072304;28;20072;-83
2021/09/23 11:28:32;;;;;;;1.27;1.00;;;;;;;32.72;23.74;98254.97;5052729;28;20029;-83
2021/09/23 11:30:59;;;;;;;1.95;1.02;;;;;;;33.30;21.62;98265.59;5052467;28;20075;-83
2021/09/23 11:33:27;;;;;;;1.63;1.10;;;;;;;32.94;21.23;98263.09;5070219;28;20040;-83